createdAt,value
2016-04-17T00:00:38.146Z,0
2016-04-17T00:01:38.273Z,0
2016-04-17T00:02:38.245Z,0
2016-04-17T00:03:38.216Z,0
2016-04-17T00:04:38.188Z,0
2016-04-17T00:05:37.441Z,0
2016-04-17T00:06:38.146Z,0
2016-04-17T00:07:38.134Z,0
2016-04-17T00:08:38.089Z,0
2016-04-17T00:09:38.155Z,0
2016-04-17T00:10:38.032Z,0
2016-04-17T00:11:38.020Z,0
2016-04-17T00:12:38.023Z,0
2016-04-17T00:13:37.962Z,0
2016-04-17T00:14:37.948Z,0
2016-04-17T00:15:37.936Z,0
2016-04-17T00:16:37.876Z,0
2016-04-17T00:17:37.864Z,0
2016-04-17T00:18:37.834Z,0
2016-04-17T00:19:37.806Z,0
2016-04-17T00:20:37.793Z,0
2016-04-17T00:21:37.781Z,0
2016-04-17T00:22:37.720Z,0
2016-04-17T00:23:37.708Z,0
2016-04-17T00:24:37.867Z,0
2016-04-17T00:25:37.650Z,0
2016-04-17T00:26:37.622Z,0
2016-04-17T00:27:37.593Z,0
2016-04-17T00:28:37.565Z,0
2016-04-17T00:29:37.551Z,0
2016-04-17T00:30:37.523Z,0
2016-04-17T00:31:37.494Z,0
2016-04-17T00:32:37.466Z,0
2016-04-17T00:33:37.453Z,0
2016-04-17T00:34:37.424Z,0
2016-04-17T00:35:37.396Z,0
2016-04-17T00:36:37.368Z,0
2016-04-17T00:37:37.340Z,0
2016-04-17T00:38:37.326Z,0
2016-04-17T00:39:37.454Z,0
2016-04-17T00:40:37.268Z,0
2016-04-17T00:41:37.240Z,0
2016-04-17T00:42:37.212Z,0
2016-04-17T00:43:37.184Z,0
2016-04-17T00:44:37.154Z,0
2016-04-17T00:45:37.142Z,0
2016-04-17T00:46:37.113Z,0
2016-04-17T00:47:37.100Z,0
2016-04-17T00:48:37.056Z,0
2016-04-17T00:49:37.028Z,0
2016-04-17T00:50:37.015Z,0
2016-04-17T00:51:36.986Z,0
2016-04-17T00:52:36.973Z,0
2016-04-17T00:53:36.945Z,0
2016-04-17T00:54:36.745Z,0
2016-04-17T00:55:36.888Z,0
2016-04-17T00:56:36.859Z,0
2016-04-17T00:57:36.830Z,0
2016-04-17T00:58:36.802Z,0
2016-04-17T00:59:36.788Z,0
2016-04-17T01:00:36.761Z,0
2016-04-17T01:01:36.732Z,0
2016-04-17T01:02:36.703Z,0
2016-04-17T01:03:36.674Z,0
2016-04-17T01:04:36.646Z,0
2016-04-17T01:05:36.618Z,0
2016-04-17T01:06:36.589Z,0
2016-04-17T01:07:36.560Z,0
2016-04-17T01:08:36.548Z,0
2016-04-17T01:09:36.503Z,0
2016-04-17T01:10:36.490Z,0
2016-04-17T01:11:36.462Z,0
2016-04-17T01:12:36.434Z,0
2016-04-17T01:13:36.421Z,0
2016-04-17T01:14:36.407Z,0
2016-04-17T01:15:36.362Z,0
2016-04-17T01:16:36.334Z,0
2016-04-17T01:17:36.306Z,0
2016-04-17T01:18:36.293Z,0
2016-04-17T01:19:36.265Z,0
2016-04-17T01:20:36.236Z,0
2016-04-17T01:21:36.223Z,0
2016-04-17T01:22:36.210Z,0
2016-04-17T01:23:35.431Z,0
2016-04-17T01:24:36.091Z,0
2016-04-17T01:25:36.109Z,0
2016-04-17T01:26:36.080Z,0
2016-04-17T01:27:36.052Z,0
2016-04-17T01:28:36.038Z,0
2016-04-17T01:29:35.994Z,0
2016-04-17T01:30:35.982Z,0
2016-04-17T01:31:35.953Z,0
2016-04-17T01:32:35.940Z,0
2016-04-17T01:33:35.896Z,0
2016-04-17T01:34:35.882Z,0
2016-04-17T01:35:35.855Z,0
2016-04-17T01:36:35.810Z,0
2016-04-17T01:37:35.797Z,0
2016-04-17T01:38:35.768Z,0
2016-04-17T01:39:35.818Z,0
2016-04-17T01:40:35.726Z,0
2016-04-17T01:41:35.590Z,0
2016-04-17T01:42:35.670Z,0
2016-04-17T01:43:35.642Z,0
2016-04-17T01:44:35.628Z,0
2016-04-17T01:45:35.600Z,0
2016-04-17T01:46:35.571Z,0
2016-04-17T01:47:35.543Z,0
2016-04-17T01:48:35.514Z,0
2016-04-17T01:49:35.486Z,0
2016-04-17T01:50:35.456Z,0
2016-04-17T01:51:35.428Z,0
2016-04-17T01:52:35.400Z,0
2016-04-17T01:53:35.372Z,0
2016-04-17T01:54:35.359Z,0
2016-04-17T01:55:35.330Z,0
2016-04-17T01:56:35.317Z,0
2016-04-17T01:57:35.272Z,0
2016-04-17T01:58:35.244Z,0
2016-04-17T01:59:35.216Z,0
2016-04-17T02:00:35.203Z,0
2016-04-17T02:01:35.190Z,0
2016-04-17T02:02:35.146Z,0
2016-04-17T02:03:35.116Z,0
2016-04-17T02:04:35.089Z,0
2016-04-17T02:05:35.060Z,0
2016-04-17T02:06:35.032Z,0
2016-04-17T02:07:35.034Z,0
2016-04-17T02:08:34.990Z,0
2016-04-17T02:09:34.962Z,0
2016-04-17T02:10:34.933Z,0
2016-04-17T02:11:34.904Z,0
2016-04-17T02:12:34.876Z,0
2016-04-17T02:13:34.862Z,0
2016-04-17T02:14:34.834Z,0
2016-04-17T02:15:34.805Z,0
2016-04-17T02:16:34.793Z,0
2016-04-17T02:17:34.764Z,0
2016-04-17T02:18:34.736Z,0
2016-04-17T02:19:34.706Z,0
2016-04-17T02:20:34.678Z,0
2016-04-17T02:21:34.650Z,0
2016-04-17T02:22:34.642Z,0
2016-04-17T02:23:34.613Z,0
2016-04-17T02:24:34.569Z,0
2016-04-17T02:25:34.541Z,0
2016-04-17T02:26:34.527Z,0
2016-04-17T02:27:34.499Z,0
2016-04-17T02:28:34.471Z,0
2016-04-17T02:29:34.441Z,0
2016-04-17T02:30:34.413Z,0
2016-04-17T02:31:34.385Z,0
2016-04-17T02:32:34.357Z,0
2016-04-17T02:33:34.344Z,0
2016-04-17T02:34:34.315Z,0
2016-04-17T02:35:34.286Z,0
2016-04-17T02:36:34.273Z,0
2016-04-17T02:37:34.229Z,0
2016-04-17T02:38:34.216Z,0
2016-04-17T02:39:34.172Z,0
2016-04-17T02:40:34.159Z,0
2016-04-17T02:41:34.131Z,0
2016-04-17T02:42:34.117Z,0
2016-04-17T02:43:34.073Z,0
2016-04-17T02:44:34.045Z,0
2016-04-17T02:45:34.017Z,0
2016-04-17T02:46:34.003Z,0
2016-04-17T02:47:33.975Z,0
2016-04-17T02:48:33.945Z,0
2016-04-17T02:49:33.918Z,0
2016-04-17T02:50:33.889Z,0
2016-04-17T02:51:33.876Z,0
2016-04-17T02:52:33.831Z,0
2016-04-17T02:53:33.819Z,0
2016-04-17T02:54:33.790Z,0
2016-04-17T02:55:33.762Z,0
2016-04-17T02:56:33.749Z,0
2016-04-17T02:57:33.705Z,0
2016-04-17T02:58:33.676Z,0
2016-04-17T02:59:33.663Z,0
2016-04-17T03:00:33.635Z,0
2016-04-17T03:01:33.605Z,0
2016-04-17T03:02:33.593Z,0
2016-04-17T03:03:33.549Z,0
2016-04-17T03:04:33.521Z,0
2016-04-17T03:05:33.554Z,0
2016-04-17T03:06:33.557Z,0
2016-04-17T03:07:33.466Z,0
2016-04-17T03:08:33.484Z,0
2016-04-17T03:09:33.440Z,0
2016-04-17T03:10:33.427Z,0
2016-04-17T03:11:33.179Z,0
2016-04-17T03:12:33.354Z,0
2016-04-17T03:13:33.342Z,0
2016-04-17T03:14:33.298Z,0
2016-04-17T03:15:33.284Z,0
2016-04-17T03:16:33.271Z,0
2016-04-17T03:17:33.195Z,0
2016-04-17T03:18:33.198Z,0
2016-04-17T03:19:33.170Z,0
2016-04-17T03:20:33.141Z,0
2016-04-17T03:21:33.113Z,0
2016-04-17T03:22:33.084Z,0
2016-04-17T03:23:33.103Z,0
2016-04-17T03:24:33.075Z,0
2016-04-17T03:25:33.030Z,0
2016-04-17T03:26:32.970Z,0
2016-04-17T03:27:32.957Z,0
2016-04-17T03:28:32.991Z,0
2016-04-17T03:29:32.899Z,0
2016-04-17T03:30:32.903Z,0
2016-04-17T03:31:32.890Z,0
2016-04-17T03:32:32.830Z,0
2016-04-17T03:33:32.801Z,0
2016-04-17T03:34:32.741Z,0
2016-04-17T03:35:32.743Z,0
2016-04-17T03:36:32.794Z,0
2016-04-17T03:37:32.734Z,0
2016-04-17T03:38:32.502Z,0
2016-04-17T03:39:32.629Z,0
2016-04-17T03:40:32.601Z,0
2016-04-17T03:41:32.557Z,0
2016-04-17T03:42:32.529Z,0
2016-04-17T03:43:32.500Z,0
2016-04-17T03:44:32.471Z,0
2016-04-17T03:45:32.443Z,0
2016-04-17T03:46:32.430Z,0
2016-04-17T03:47:32.401Z,0
2016-04-17T03:48:32.373Z,0
2016-04-17T03:49:32.345Z,0
2016-04-17T03:50:32.317Z,0
2016-04-17T03:51:32.287Z,0
2016-04-17T03:52:32.274Z,0
2016-04-17T03:53:32.246Z,0
2016-04-17T03:54:32.217Z,0
2016-04-17T03:55:32.189Z,0
2016-04-17T03:56:32.160Z,0
2016-04-17T03:57:32.147Z,0
2016-04-17T03:58:32.119Z,0
2016-04-17T03:59:32.074Z,0
2016-04-17T04:00:32.061Z,0
2016-04-17T04:01:32.017Z,0
2016-04-17T04:02:32.005Z,0
2016-04-17T04:03:31.976Z,0
2016-04-17T04:04:31.947Z,0
2016-04-17T04:05:31.919Z,0
2016-04-17T04:06:31.906Z,0
2016-04-17T04:07:31.877Z,0
2016-04-17T04:08:31.833Z,0
2016-04-17T04:09:31.820Z,0
2016-04-17T04:10:31.791Z,0
2016-04-17T04:11:31.762Z,0
2016-04-17T04:12:31.735Z,0
2016-04-17T04:13:31.706Z,0
2016-04-17T04:14:31.677Z,0
2016-04-17T04:15:31.664Z,0
2016-04-17T04:16:31.637Z,0
2016-04-17T04:17:31.607Z,0
2016-04-17T04:18:31.579Z,0
2016-04-17T04:19:31.550Z,0
2016-04-17T04:20:31.522Z,0
2016-04-17T04:21:31.492Z,0
2016-04-17T04:22:31.480Z,0
2016-04-17T04:23:31.451Z,0
2016-04-17T04:24:31.408Z,0
2016-04-17T04:25:31.441Z,0
2016-04-17T04:26:31.366Z,5
2016-04-17T04:27:31.368Z,5
2016-04-17T04:28:31.308Z,5
2016-04-17T04:29:31.296Z,5
2016-04-17T04:30:31.267Z,5
2016-04-17T04:31:31.255Z,5
2016-04-17T04:32:31.210Z,5
2016-04-17T04:33:31.182Z,5
2016-04-17T04:34:31.153Z,10
2016-04-17T04:35:31.141Z,10
2016-04-17T04:36:31.096Z,10
2016-04-17T04:37:31.083Z,10
2016-04-17T04:38:31.054Z,10
2016-04-17T04:39:31.026Z,10
2016-04-17T04:40:31.060Z,10
2016-04-17T04:41:30.968Z,10
2016-04-17T04:42:30.940Z,10
2016-04-17T04:43:30.927Z,15
2016-04-17T04:44:30.898Z,15
2016-04-17T04:45:30.870Z,15
2016-04-17T04:46:30.825Z,15
2016-04-17T04:47:30.829Z,15
2016-04-17T04:48:30.784Z,15
2016-04-17T04:49:30.756Z,20
2016-04-17T04:50:30.742Z,20
2016-04-17T04:51:30.698Z,20
2016-04-17T04:52:30.686Z,25
2016-04-17T04:53:30.673Z,25
2016-04-17T04:54:30.628Z,30
2016-04-17T04:55:30.616Z,35
2016-04-17T04:56:30.586Z,40
2016-04-17T04:57:30.542Z,40
2016-04-17T04:58:30.530Z,45
2016-04-17T04:59:30.516Z,45
2016-04-17T05:00:30.473Z,45
2016-04-17T05:01:30.444Z,50
2016-04-17T05:02:30.431Z,50
2016-04-17T05:03:30.402Z,50
2016-04-17T05:04:30.358Z,50
2016-04-17T05:05:30.346Z,55
2016-04-17T05:06:30.317Z,55
2016-04-17T05:07:30.288Z,60
2016-04-17T05:08:30.260Z,60
2016-04-17T05:09:30.231Z,65
2016-04-17T05:10:30.157Z,70
2016-04-17T05:11:30.174Z,75
2016-04-17T05:12:30.146Z,85
2016-04-17T05:13:30.132Z,90
2016-04-17T05:14:30.104Z,100
2016-04-17T05:15:30.075Z,100
2016-04-17T05:16:30.048Z,105
2016-04-17T05:17:30.018Z,105
2016-04-17T05:18:29.990Z,110
2016-04-17T05:19:29.976Z,125
2016-04-17T05:20:29.948Z,125
2016-04-17T05:21:29.919Z,125
2016-04-17T05:22:29.907Z,120
2016-04-17T05:23:29.862Z,115
2016-04-17T05:24:29.834Z,115
2016-04-17T05:25:29.899Z,125
2016-04-17T05:26:29.792Z,135
2016-04-17T05:27:29.748Z,145
2016-04-17T05:28:29.736Z,150
2016-04-17T05:29:29.707Z,155
2016-04-17T05:30:29.694Z,155
2016-04-17T05:31:29.650Z,155
2016-04-17T05:32:29.636Z,155
2016-04-17T05:33:29.593Z,150
2016-04-17T05:34:29.580Z,145
2016-04-17T05:35:29.552Z,150
2016-04-17T05:36:29.522Z,150
2016-04-17T05:37:29.494Z,150
2016-04-17T05:38:29.481Z,155
2016-04-17T05:39:29.452Z,155
2016-04-17T05:40:29.518Z,165
2016-04-17T05:41:29.396Z,175
2016-04-17T05:42:29.367Z,180
2016-04-17T05:43:29.338Z,185
2016-04-17T05:44:29.326Z,180
2016-04-17T05:45:29.297Z,170
2016-04-17T05:46:29.268Z,155
2016-04-17T05:47:29.240Z,145
2016-04-17T05:48:29.212Z,140
2016-04-17T05:49:29.182Z,140
2016-04-17T05:50:29.170Z,155
2016-04-17T05:51:29.142Z,175
2016-04-17T05:52:29.113Z,190
2016-04-17T05:53:29.084Z,205
2016-04-17T05:54:29.134Z,215
2016-04-17T05:55:29.027Z,225
2016-04-17T05:56:29.014Z,235
2016-04-17T05:57:29.016Z,240
2016-04-17T05:58:28.957Z,245
2016-04-17T05:59:28.928Z,250
2016-04-17T06:00:28.900Z,245
2016-04-17T06:01:28.886Z,245
2016-04-17T06:02:28.859Z,235
2016-04-17T06:03:28.867Z,215
2016-04-17T06:04:28.878Z,180
2016-04-17T06:05:28.889Z,150
2016-04-17T06:06:28.917Z,130
2016-04-17T06:07:28.927Z,115
2016-04-17T06:08:28.915Z,115
2016-04-17T06:09:28.917Z,130
2016-04-17T06:10:28.902Z,140
2016-04-17T06:11:28.732Z,145
2016-04-17T06:12:28.874Z,145
2016-04-17T06:13:28.851Z,150
2016-04-17T06:14:28.828Z,145
2016-04-17T06:15:28.836Z,145
2016-04-17T06:16:28.797Z,155
2016-04-17T06:17:28.759Z,160
2016-04-17T06:18:28.747Z,155
2016-04-17T06:19:28.736Z,145
2016-04-17T06:20:28.693Z,150
2016-04-17T06:21:28.528Z,160
2016-04-17T06:22:28.657Z,175
2016-04-17T06:23:28.628Z,175
2016-04-17T06:24:28.601Z,180
2016-04-17T06:25:28.588Z,160
2016-04-17T06:26:28.546Z,115
2016-04-17T06:27:28.534Z,90
2016-04-17T06:28:28.505Z,100
2016-04-17T06:29:28.476Z,110
2016-04-17T06:30:28.432Z,125
2016-04-17T06:31:28.419Z,145
2016-04-17T06:32:28.391Z,175
2016-04-17T06:33:28.377Z,185
2016-04-17T06:34:28.333Z,200
2016-04-17T06:35:28.321Z,210
2016-04-17T06:36:28.135Z,225
2016-04-17T06:37:28.263Z,245
2016-04-17T06:38:28.235Z,265
2016-04-17T06:39:28.206Z,265
2016-04-17T06:40:28.178Z,265
2016-04-17T06:41:28.149Z,270
2016-04-17T06:42:28.135Z,290
2016-04-17T06:43:28.108Z,320
2016-04-17T06:44:28.110Z,350
2016-04-17T06:45:28.066Z,380
2016-04-17T06:46:28.022Z,405
2016-04-17T06:47:28.009Z,430
2016-04-17T06:48:27.981Z,445
2016-04-17T06:49:27.952Z,465
2016-04-17T06:50:27.939Z,480
2016-04-17T06:51:27.926Z,490
2016-04-17T06:52:27.882Z,500
2016-04-17T06:53:27.837Z,510
2016-04-17T06:54:27.825Z,530
2016-04-17T06:55:27.795Z,550
2016-04-17T06:56:27.783Z,565
2016-04-17T06:57:27.756Z,585
2016-04-17T06:58:26.991Z,595
2016-04-17T06:59:27.729Z,600
2016-04-17T07:00:27.669Z,615
2016-04-17T07:01:27.641Z,630
2016-04-17T07:02:27.628Z,655
2016-04-17T07:03:27.599Z,740
2016-04-17T07:04:27.586Z,675
2016-04-17T07:05:27.542Z,665
2016-04-17T07:06:27.529Z,670
2016-04-17T07:07:27.485Z,720
2016-04-17T07:08:27.472Z,855
2016-04-17T07:09:27.443Z,840
2016-04-17T07:10:27.430Z,815
2016-04-17T07:11:27.401Z,645
2016-04-17T07:12:27.374Z,560
2016-04-17T07:13:27.344Z,475
2016-04-17T07:14:27.315Z,415
2016-04-17T07:15:27.287Z,375
2016-04-17T07:16:27.274Z,355
2016-04-17T07:17:27.245Z,365
2016-04-17T07:18:27.233Z,390
2016-04-17T07:19:27.204Z,400
2016-04-17T07:20:27.176Z,410
2016-04-17T07:21:27.162Z,435
2016-04-17T07:22:27.135Z,455
2016-04-17T07:23:27.106Z,425
2016-04-17T07:24:27.078Z,370
2016-04-17T07:25:27.048Z,355
2016-04-17T07:26:27.036Z,355
2016-04-17T07:27:27.007Z,385
2016-04-17T07:28:26.995Z,440
2016-04-17T07:29:26.966Z,505
2016-04-17T07:30:26.937Z,545
2016-04-17T07:31:26.924Z,565
2016-04-17T07:32:26.880Z,550
2016-04-17T07:33:26.883Z,520
2016-04-17T07:34:26.839Z,505
2016-04-17T07:35:26.810Z,470
2016-04-17T07:36:26.797Z,405
2016-04-17T07:37:26.769Z,340
2016-04-17T07:38:26.741Z,300
2016-04-17T07:39:26.727Z,250
2016-04-17T07:40:26.699Z,205
2016-04-17T07:41:26.669Z,185
2016-04-17T07:42:26.641Z,205
2016-04-17T07:43:26.629Z,220
2016-04-17T07:44:26.600Z,240
2016-04-17T07:45:26.571Z,270
2016-04-17T07:46:26.543Z,315
2016-04-17T07:47:26.514Z,370
2016-04-17T07:48:28.751Z,435
2016-04-17T07:49:26.473Z,480
2016-04-17T07:50:26.459Z,500
2016-04-17T07:51:26.415Z,530
2016-04-17T07:52:26.403Z,540
2016-04-17T07:53:26.374Z,535
2016-04-17T07:54:26.346Z,520
2016-04-17T07:55:26.317Z,485
2016-04-17T07:56:26.304Z,455
2016-04-17T07:57:26.275Z,415
2016-04-17T07:58:26.122Z,395
2016-04-17T07:59:26.249Z,390
2016-04-17T08:00:26.190Z,405
2016-04-17T08:01:26.161Z,420
2016-04-17T08:02:26.148Z,430
2016-04-17T08:03:26.119Z,450
2016-04-17T08:04:26.106Z,500
2016-04-17T08:05:26.531Z,535
2016-04-17T08:06:26.049Z,575
2016-04-17T08:07:26.036Z,620
2016-04-17T08:08:26.024Z,660
2016-04-17T08:09:25.964Z,680
2016-04-17T08:10:25.952Z,685
2016-04-17T08:11:25.922Z,670
2016-04-17T08:12:25.893Z,630
2016-04-17T08:13:25.865Z,590
2016-04-17T08:14:25.837Z,560
2016-04-17T08:15:25.824Z,565
2016-04-17T08:16:25.827Z,580
2016-04-17T08:17:25.798Z,615
2016-04-17T08:18:25.768Z,655
2016-04-17T08:19:25.725Z,700
2016-04-17T08:20:25.696Z,730
2016-04-17T08:21:25.667Z,750
2016-04-17T08:22:25.655Z,780
2016-04-17T08:23:25.642Z,800
2016-04-17T08:24:25.614Z,805
2016-04-17T08:25:25.569Z,825
2016-04-17T08:26:25.556Z,855
2016-04-17T08:27:25.528Z,900
2016-04-17T08:28:25.500Z,925
2016-04-17T08:29:25.487Z,945
2016-04-17T08:30:25.458Z,960
2016-04-17T08:31:25.429Z,960
2016-04-17T08:32:25.416Z,970
2016-04-17T08:33:25.388Z,990
2016-04-17T08:34:25.359Z,1010
2016-04-17T08:35:25.346Z,1045
2016-04-17T08:36:25.317Z,1110
2016-04-17T08:37:25.289Z,1125
2016-04-17T08:38:25.276Z,1300
2016-04-17T08:39:25.247Z,1410
2016-04-17T08:40:25.250Z,1425
2016-04-17T08:41:25.191Z,1375
2016-04-17T08:42:25.178Z,1210
2016-04-17T08:43:25.150Z,1125
2016-04-17T08:44:25.136Z,1140
2016-04-17T08:45:25.107Z,1135
2016-04-17T08:46:25.079Z,1090
2016-04-17T08:47:25.066Z,1050
2016-04-17T08:48:25.054Z,1015
2016-04-17T08:49:25.024Z,965
2016-04-17T08:50:24.996Z,985
2016-04-17T08:51:24.968Z,1060
2016-04-17T08:52:24.955Z,1085
2016-04-17T08:53:24.942Z,1070
2016-04-17T08:54:24.959Z,1040
2016-04-17T08:55:24.900Z,940
2016-04-17T08:56:24.871Z,1035
2016-04-17T08:57:24.859Z,1010
2016-04-17T08:58:24.831Z,970
2016-04-17T08:59:24.833Z,1060
2016-04-17T09:00:24.804Z,1200
2016-04-17T09:01:24.760Z,1250
2016-04-17T09:02:24.747Z,1105
2016-04-17T09:03:24.734Z,1020
2016-04-17T09:04:24.705Z,960
2016-04-17T09:05:24.677Z,965
2016-04-17T09:06:24.648Z,1000
2016-04-17T09:07:24.636Z,1095
2016-04-17T09:08:24.607Z,1215
2016-04-17T09:09:24.610Z,1295
2016-04-17T09:10:24.580Z,1360
2016-04-17T09:11:24.553Z,1335
2016-04-17T09:12:24.524Z,1225
2016-04-17T09:13:24.511Z,1110
2016-04-17T09:14:24.482Z,1060
2016-04-17T09:15:24.470Z,1050
2016-04-17T09:16:24.457Z,1090
2016-04-17T09:17:24.428Z,1000
2016-04-17T09:18:24.415Z,845
2016-04-17T09:19:24.387Z,770
2016-04-17T09:20:24.358Z,730
2016-04-17T09:21:24.345Z,735
2016-04-17T09:22:24.316Z,725
2016-04-17T09:23:24.287Z,650
2016-04-17T09:24:24.276Z,650
2016-04-17T09:25:24.246Z,685
2016-04-17T09:26:24.234Z,700
2016-04-17T09:27:24.205Z,670
2016-04-17T09:28:24.193Z,655
2016-04-17T09:29:24.164Z,655
2016-04-17T09:30:24.135Z,685
2016-04-17T09:31:24.106Z,730
2016-04-17T09:32:24.093Z,815
2016-04-17T09:33:24.065Z,910
2016-04-17T09:34:24.053Z,955
2016-04-17T09:35:24.023Z,1020
2016-04-17T09:36:24.011Z,1020
2016-04-17T09:37:23.982Z,1045
2016-04-17T09:38:23.970Z,1110
2016-04-17T09:39:23.941Z,1130
2016-04-17T09:40:23.928Z,1140
2016-04-17T09:41:24.118Z,1160
2016-04-17T09:42:23.886Z,1235
2016-04-17T09:43:23.857Z,1300
2016-04-17T09:44:23.844Z,1305
2016-04-17T09:45:23.925Z,1245
2016-04-17T09:46:23.788Z,1100
2016-04-17T09:47:23.758Z,865
2016-04-17T09:48:23.747Z,600
2016-04-17T09:49:23.718Z,490
2016-04-17T09:50:23.705Z,465
2016-04-17T09:51:23.692Z,460
2016-04-17T09:52:23.679Z,465
2016-04-17T09:53:23.635Z,475
2016-04-17T09:54:23.622Z,490
2016-04-17T09:55:23.593Z,510
2016-04-17T09:56:24.096Z,565
2016-04-17T09:57:22.833Z,650
2016-04-17T09:58:23.538Z,675
2016-04-17T09:59:23.525Z,695
2016-04-17T10:00:24.200Z,740
2016-04-17T10:01:23.468Z,790
2016-04-17T10:02:23.456Z,835
2016-04-17T10:03:23.427Z,870
2016-04-17T10:04:23.399Z,915
2016-04-17T10:05:23.401Z,925
2016-04-17T10:06:23.357Z,1020
2016-04-17T10:07:23.329Z,1090
2016-04-17T10:08:23.175Z,1000
2016-04-17T10:09:23.302Z,925
2016-04-17T10:10:23.275Z,895
2016-04-17T10:11:23.261Z,865
2016-04-17T10:12:23.233Z,840
2016-04-17T10:13:23.203Z,805
2016-04-17T10:14:23.175Z,790
2016-04-17T10:15:23.146Z,785
2016-04-17T10:16:23.134Z,780
2016-04-17T10:17:23.121Z,765
2016-04-17T10:18:23.092Z,735
2016-04-17T10:19:23.080Z,725
2016-04-17T10:20:23.051Z,685
2016-04-17T10:21:22.882Z,665
2016-04-17T10:22:23.009Z,655
2016-04-17T10:23:22.980Z,665
2016-04-17T10:24:22.952Z,695
2016-04-17T10:25:22.939Z,775
2016-04-17T10:26:22.910Z,835
2016-04-17T10:27:22.882Z,940
2016-04-17T10:28:22.869Z,1080
2016-04-17T10:29:22.857Z,1105
2016-04-17T10:30:22.828Z,945
2016-04-17T10:31:22.799Z,890
2016-04-17T10:32:22.786Z,905
2016-04-17T10:33:22.757Z,955
2016-04-17T10:34:22.745Z,995
2016-04-17T10:35:22.747Z,1040
2016-04-17T10:36:22.703Z,980
2016-04-17T10:37:22.675Z,955
2016-04-17T10:38:22.646Z,870
2016-04-17T10:39:22.634Z,765
2016-04-17T10:40:22.636Z,715
2016-04-17T10:41:22.592Z,670
2016-04-17T10:42:22.563Z,625
2016-04-17T10:43:22.534Z,635
2016-04-17T10:44:22.522Z,615
2016-04-17T10:45:22.493Z,590
2016-04-17T10:46:22.497Z,580
2016-04-17T10:47:22.451Z,570
2016-04-17T10:48:22.423Z,565
2016-04-17T10:49:22.598Z,560
2016-04-17T10:50:22.397Z,560
2016-04-17T10:51:22.369Z,565
2016-04-17T10:52:22.200Z,575
2016-04-17T10:53:22.327Z,585
2016-04-17T10:54:22.299Z,600
2016-04-17T10:55:22.441Z,625
2016-04-17T10:56:22.257Z,650
2016-04-17T10:57:22.243Z,675
2016-04-17T10:58:22.293Z,705
2016-04-17T10:59:22.188Z,745
2016-04-17T11:00:22.174Z,775
2016-04-17T11:01:22.146Z,825
2016-04-17T11:02:22.117Z,895
2016-04-17T11:03:22.120Z,960
2016-04-17T11:04:22.076Z,1005
2016-04-17T11:05:22.078Z,1030
2016-04-17T11:06:22.034Z,1060
2016-04-17T11:07:21.880Z,1085
2016-04-17T11:08:21.992Z,1105
2016-04-17T11:09:21.979Z,1075
2016-04-17T11:10:21.981Z,1050
2016-04-17T11:11:21.938Z,970
2016-04-17T11:12:21.941Z,865
2016-04-17T11:13:21.897Z,835
2016-04-17T11:14:21.884Z,800
2016-04-17T11:15:21.855Z,765
2016-04-17T11:16:21.827Z,750
2016-04-17T11:17:21.814Z,725
2016-04-17T11:18:21.785Z,710
2016-04-17T11:19:21.756Z,735
2016-04-17T11:20:21.759Z,780
2016-04-17T11:21:21.731Z,840
2016-04-17T11:22:21.702Z,885
2016-04-17T11:23:21.688Z,880
2016-04-17T11:24:21.676Z,845
2016-04-17T11:25:21.647Z,780
2016-04-17T11:26:21.619Z,770
2016-04-17T11:27:21.637Z,795
2016-04-17T11:28:21.577Z,835
2016-04-17T11:29:21.565Z,870
2016-04-17T11:30:21.551Z,910
2016-04-17T11:31:21.523Z,955
2016-04-17T11:32:21.510Z,1005
2016-04-17T11:33:21.481Z,1045
2016-04-17T11:34:21.469Z,1045
2016-04-17T11:35:21.440Z,1020
2016-04-17T11:36:21.426Z,980
2016-04-17T11:37:21.445Z,945
2016-04-17T11:38:21.386Z,950
2016-04-17T11:39:21.357Z,950
2016-04-17T11:40:21.344Z,955
2016-04-17T11:41:21.347Z,965
2016-04-17T11:42:21.303Z,955
2016-04-17T11:43:21.306Z,925
2016-04-17T11:44:21.278Z,905
2016-04-17T11:45:21.248Z,895
2016-04-17T11:46:21.220Z,900
2016-04-17T11:47:21.207Z,915
2016-04-17T11:48:21.178Z,930
2016-04-17T11:49:21.166Z,960
2016-04-17T11:50:21.136Z,990
2016-04-17T11:51:21.124Z,1010
2016-04-17T11:52:21.204Z,1025
2016-04-17T11:53:21.082Z,1030
2016-04-17T11:54:21.069Z,1045
2016-04-17T11:55:21.041Z,1030
2016-04-17T11:56:21.027Z,1045
2016-04-17T11:57:20.999Z,1070
2016-04-17T11:58:20.986Z,1050
2016-04-17T11:59:20.958Z,960
2016-04-17T12:00:20.930Z,905
2016-04-17T12:01:20.916Z,865
2016-04-17T12:02:20.904Z,835
2016-04-17T12:03:20.907Z,805
2016-04-17T12:04:20.862Z,770
2016-04-17T12:05:20.834Z,725
2016-04-17T12:06:20.821Z,680
2016-04-17T12:07:20.792Z,665
2016-04-17T12:08:20.779Z,670
2016-04-17T12:09:20.750Z,700
2016-04-17T12:10:20.737Z,745
2016-04-17T12:11:20.725Z,770
2016-04-17T12:12:20.696Z,800
2016-04-17T12:13:20.667Z,820
2016-04-17T12:14:20.670Z,830
2016-04-17T12:15:20.641Z,850
2016-04-17T12:16:20.628Z,885
2016-04-17T12:17:20.584Z,965
2016-04-17T12:18:20.571Z,945
2016-04-17T12:19:20.558Z,955
2016-04-17T12:20:20.530Z,1015
2016-04-17T12:21:20.517Z,990
2016-04-17T12:22:20.488Z,935
2016-04-17T12:23:20.475Z,970
2016-04-17T12:24:20.462Z,955
2016-04-17T12:25:20.434Z,980
2016-04-17T12:26:20.422Z,1025
2016-04-17T12:27:20.393Z,1035
2016-04-17T12:28:20.380Z,995
2016-04-17T12:29:20.351Z,960
2016-04-17T12:30:20.322Z,950
2016-04-17T12:31:20.310Z,975
2016-04-17T12:32:20.297Z,1005
2016-04-17T12:33:20.268Z,1035
2016-04-17T12:34:20.255Z,1075
2016-04-17T12:35:20.227Z,1080
2016-04-17T12:36:20.229Z,1040
2016-04-17T12:37:20.216Z,995
2016-04-17T12:38:20.188Z,985
2016-04-17T12:39:20.143Z,980
2016-04-17T12:40:20.131Z,950
2016-04-17T12:41:20.102Z,885
2016-04-17T12:42:20.089Z,815
2016-04-17T12:43:20.075Z,755
2016-04-17T12:44:20.047Z,730
2016-04-17T12:45:20.034Z,735
2016-04-17T12:46:20.006Z,735
2016-04-17T12:47:19.993Z,740
2016-04-17T12:48:19.964Z,720
2016-04-17T12:49:19.952Z,705
2016-04-17T12:50:19.938Z,700
2016-04-17T12:51:19.910Z,710
2016-04-17T12:52:19.897Z,730
2016-04-17T12:53:22.133Z,775
2016-04-17T12:54:19.855Z,810
2016-04-17T12:55:19.827Z,840
2016-04-17T12:56:19.813Z,855
2016-04-17T12:57:19.629Z,850
2016-04-17T12:58:24.569Z,855
2016-04-17T12:59:21.416Z,870
2016-04-17T13:00:19.575Z,890
2016-04-17T13:01:19.703Z,920
2016-04-17T13:02:19.690Z,925
2016-04-17T13:03:19.677Z,905
2016-04-17T13:04:19.649Z,880
2016-04-17T13:05:19.635Z,870
2016-04-17T13:06:19.606Z,910
2016-04-17T13:07:19.593Z,880
2016-04-17T13:08:19.581Z,850
2016-04-17T13:09:19.537Z,795
2016-04-17T13:10:19.523Z,755
2016-04-17T13:11:19.511Z,740
2016-04-17T13:12:19.482Z,705
2016-04-17T13:13:19.485Z,705
2016-04-17T13:14:19.456Z,700
2016-04-17T13:15:19.443Z,705
2016-04-17T13:16:19.415Z,725
2016-04-17T13:17:19.245Z,760
2016-04-17T13:18:19.373Z,795
2016-04-17T13:19:19.361Z,840
2016-04-17T13:20:19.347Z,860
2016-04-17T13:21:19.319Z,885
2016-04-17T13:22:19.291Z,935
2016-04-17T13:23:19.277Z,975
2016-04-17T13:24:19.249Z,1030
2016-04-17T13:25:19.251Z,1065
2016-04-17T13:26:19.207Z,1070
2016-04-17T13:27:19.210Z,1045
2016-04-17T13:28:19.182Z,980
2016-04-17T13:29:19.168Z,995
2016-04-17T13:30:19.140Z,960
2016-04-17T13:31:19.143Z,985
2016-04-17T13:32:19.114Z,995
2016-04-17T13:33:19.085Z,965
2016-04-17T13:34:19.057Z,960
2016-04-17T13:35:19.060Z,965
2016-04-17T13:36:19.031Z,965
2016-04-17T13:37:19.018Z,975
2016-04-17T13:38:19.005Z,975
2016-04-17T13:39:18.977Z,985
2016-04-17T13:40:18.964Z,975
2016-04-17T13:41:18.951Z,980
2016-04-17T13:42:18.923Z,1005
2016-04-17T13:43:18.909Z,1040
2016-04-17T13:44:18.881Z,1060
2016-04-17T13:45:18.884Z,1050
2016-04-17T13:46:18.870Z,1045
2016-04-17T13:47:18.842Z,1005
2016-04-17T13:48:18.814Z,1005
2016-04-17T13:49:18.800Z,1025
2016-04-17T13:50:18.787Z,995
2016-04-17T13:51:18.759Z,1005
2016-04-17T13:52:18.746Z,970
2016-04-17T13:53:18.733Z,915
2016-04-17T13:54:18.705Z,830
2016-04-17T13:55:18.708Z,755
2016-04-17T13:56:18.678Z,705
2016-04-17T13:57:18.666Z,680
2016-04-17T13:58:18.481Z,705
2016-04-17T13:59:18.624Z,735
2016-04-17T14:00:18.596Z,775
2016-04-17T14:01:18.583Z,820
2016-04-17T14:02:18.569Z,845
2016-04-17T14:03:18.541Z,865